sensor_id;sensor_type;location;lat;lon;timestamp;temperature;humidity
39957;DHT22;48483;44.640;7.494;2023-08-21T00:00:24;28.00;99.90
39957;DHT22;48483;44.640;7.494;2023-08-21T00:02:51;27.90;99.90
39957;DHT22;48483;44.640;7.494;2023-08-21T00:05:17;27.90;99.90
39957;DHT22;48483;44.640;7.494;2023-08-21T00:07:45;27.90;99.90
39957;DHT22;48483;44.640;7.494;2023-08-21T00:10:12;27.90;99.90
39957;DHT22;48483;44.640;7.494;2023-08-21T00:12:40;27.90;99.90
39957;DHT22;48483;44.640;7.494;2023-08-21T00:15:08;27.90;99.90
39957;DHT22;48483;44.640;7.494;2023-08-21T00:17:36;27.90;99.90
39957;DHT22;48483;44.640;7.494;2023-08-21T00:20:03;27.90;99.90
39957;DHT22;48483;44.640;7.494;2023-08-21T00:22:37;27.90;99.90
39957;DHT22;48483;44.640;7.494;2023-08-21T00:25:55;27.90;99.90
39957;DHT22;48483;44.640;7.494;2023-08-21T00:28:58;27.90;99.90
39957;DHT22;48483;44.640;7.494;2023-08-21T00:31:36;27.90;99.90
39957;DHT22;48483;44.640;7.494;2023-08-21T00:34:26;27.90;99.90
39957;DHT22;48483;44.640;7.494;2023-08-21T00:37:16;27.90;99.90
39957;DHT22;48483;44.640;7.494;2023-08-21T00:39:52;27.80;99.90
39957;DHT22;48483;44.640;7.494;2023-08-21T00:42:20;27.90;99.90
39957;DHT22;48483;44.640;7.494;2023-08-21T00:44:49;27.80;99.90
39957;DHT22;48483;44.640;7.494;2023-08-21T00:47:16;27.90;99.90
39957;DHT22;48483;44.640;7.494;2023-08-21T00:49:42;27.90;99.90
39957;DHT22;48483;44.640;7.494;2023-08-21T00:52:11;27.90;99.90
39957;DHT22;48483;44.640;7.494;2023-08-21T00:54:39;27.90;99.90
39957;DHT22;48483;44.640;7.494;2023-08-21T00:57:53;27.90;99.90
39957;DHT22;48483;44.640;7.494;2023-08-21T01:00:43;27.80;99.90
39957;DHT22;48483;44.640;7.494;2023-08-21T01:03:32;27.80;99.90
39957;DHT22;48483;44.640;7.494;2023-08-21T01:06:28;27.80;99.90
39957;DHT22;48483;44.640;7.494;2023-08-21T01:09:45;27.80;99.90
39957;DHT22;48483;44.640;7.494;2023-08-21T01:12:35;27.80;99.90
39957;DHT22;48483;44.640;7.494;2023-08-21T01:15:27;27.80;99.90
39957;DHT22;48483;44.640;7.494;2023-08-21T01:18:13;27.70;99.90
39957;DHT22;48483;44.640;7.494;2023-08-21T01:21:08;27.80;99.90
39957;DHT22;48483;44.640;7.494;2023-08-21T01:24:01;27.80;99.90
39957;DHT22;48483;44.640;7.494;2023-08-21T01:26:59;27.80;99.90
39957;DHT22;48483;44.640;7.494;2023-08-21T01:30:04;27.80;99.90
39957;DHT22;48483;44.640;7.494;2023-08-21T01:33:26;27.70;99.90
39957;DHT22;48483;44.640;7.494;2023-08-21T01:36:15;27.70;99.90
39957;DHT22;48483;44.640;7.494;2023-08-21T01:38:44;27.70;99.90
39957;DHT22;48483;44.640;7.494;2023-08-21T01:41:13;27.70;99.90
39957;DHT22;48483;44.640;7.494;2023-08-21T01:43:44;27.70;99.90
39957;DHT22;48483;44.640;7.494;2023-08-21T01:46:13;27.70;99.90
39957;DHT22;48483;44.640;7.494;2023-08-21T01:48:40;27.70;99.90
39957;DHT22;48483;44.640;7.494;2023-08-21T01:51:08;27.70;99.90
39957;DHT22;48483;44.640;7.494;2023-08-21T01:53:35;27.70;99.90
39957;DHT22;48483;44.640;7.494;2023-08-21T01:56:02;27.70;99.90
39957;DHT22;48483;44.640;7.494;2023-08-21T01:58:30;27.60;99.90
39957;DHT22;48483;44.640;7.494;2023-08-21T02:00:57;27.60;99.90
39957;DHT22;48483;44.640;7.494;2023-08-21T02:03:25;27.60;99.90
39957;DHT22;48483;44.640;7.494;2023-08-21T02:05:55;27.60;99.90
39957;DHT22;48483;44.640;7.494;2023-08-21T02:08:26;27.60;99.90
39957;DHT22;48483;44.640;7.494;2023-08-21T02:10:53;27.60;99.90
39957;DHT22;48483;44.640;7.494;2023-08-21T02:13:20;27.50;99.90
39957;DHT22;48483;44.640;7.494;2023-08-21T02:15:48;27.50;99.90
39957;DHT22;48483;44.640;7.494;2023-08-21T02:18:15;27.60;99.90
39957;DHT22;48483;44.640;7.494;2023-08-21T02:20:41;27.50;99.90
39957;DHT22;48483;44.640;7.494;2023-08-21T02:23:10;27.50;99.90
39957;DHT22;48483;44.640;7.494;2023-08-21T02:25:36;27.50;99.90
39957;DHT22;48483;44.640;7.494;2023-08-21T02:28:03;27.60;99.90
39957;DHT22;48483;44.640;7.494;2023-08-21T02:30:30;27.50;99.90
39957;DHT22;48483;44.640;7.494;2023-08-21T02:32:58;27.50;99.90
39957;DHT22;48483;44.640;7.494;2023-08-21T02:35:25;27.50;99.90
39957;DHT22;48483;44.640;7.494;2023-08-21T02:37:52;27.50;99.90
39957;DHT22;48483;44.640;7.494;2023-08-21T02:40:19;27.60;99.90
39957;DHT22;48483;44.640;7.494;2023-08-21T02:42:46;27.60;99.90
39957;DHT22;48483;44.640;7.494;2023-08-21T02:45:13;27.50;99.90
39957;DHT22;48483;44.640;7.494;2023-08-21T02:47:40;27.60;99.90
39957;DHT22;48483;44.640;7.494;2023-08-21T02:50:09;27.60;99.90
39957;DHT22;48483;44.640;7.494;2023-08-21T02:52:37;27.50;99.90
39957;DHT22;48483;44.640;7.494;2023-08-21T02:55:05;27.50;99.90
39957;DHT22;48483;44.640;7.494;2023-08-21T02:57:32;27.60;99.90
39957;DHT22;48483;44.640;7.494;2023-08-21T02:59:59;27.60;99.90
39957;DHT22;48483;44.640;7.494;2023-08-21T03:02:25;27.50;99.90
39957;DHT22;48483;44.640;7.494;2023-08-21T03:04:52;27.50;99.90
39957;DHT22;48483;44.640;7.494;2023-08-21T03:07:20;27.50;99.90
39957;DHT22;48483;44.640;7.494;2023-08-21T03:09:48;27.50;99.90
39957;DHT22;48483;44.640;7.494;2023-08-21T03:12:15;27.60;99.90
39957;DHT22;48483;44.640;7.494;2023-08-21T03:14:42;27.50;99.90
39957;DHT22;48483;44.640;7.494;2023-08-21T03:17:09;27.50;99.90
39957;DHT22;48483;44.640;7.494;2023-08-21T03:19:35;27.50;99.90
39957;DHT22;48483;44.640;7.494;2023-08-21T03:22:02;27.50;99.90
39957;DHT22;48483;44.640;7.494;2023-08-21T03:24:30;27.50;99.90
39957;DHT22;48483;44.640;7.494;2023-08-21T03:26:57;27.50;99.90
39957;DHT22;48483;44.640;7.494;2023-08-21T03:29:24;27.50;99.90
39957;DHT22;48483;44.640;7.494;2023-08-21T03:31:53;27.50;99.90
39957;DHT22;48483;44.640;7.494;2023-08-21T03:34:20;27.50;99.90
39957;DHT22;48483;44.640;7.494;2023-08-21T03:36:49;27.50;99.90
39957;DHT22;48483;44.640;7.494;2023-08-21T03:39:16;27.50;99.90
39957;DHT22;48483;44.640;7.494;2023-08-21T03:41:46;27.50;99.90
39957;DHT22;48483;44.640;7.494;2023-08-21T03:44:13;27.50;99.90
39957;DHT22;48483;44.640;7.494;2023-08-21T03:46:40;27.50;99.90
39957;DHT22;48483;44.640;7.494;2023-08-21T03:49:06;27.50;99.90
39957;DHT22;48483;44.640;7.494;2023-08-21T03:51:33;27.50;99.90
39957;DHT22;48483;44.640;7.494;2023-08-21T03:54:00;27.40;99.90
39957;DHT22;48483;44.640;7.494;2023-08-21T03:56:26;27.40;99.90
39957;DHT22;48483;44.640;7.494;2023-08-21T03:58:56;27.40;99.90
39957;DHT22;48483;44.640;7.494;2023-08-21T04:01:23;27.30;99.90
39957;DHT22;48483;44.640;7.494;2023-08-21T04:03:49;27.40;99.90
39957;DHT22;48483;44.640;7.494;2023-08-21T04:06:16;27.40;99.90
39957;DHT22;48483;44.640;7.494;2023-08-21T04:08:42;27.40;99.90
39957;DHT22;48483;44.640;7.494;2023-08-21T04:11:09;27.40;99.90
39957;DHT22;48483;44.640;7.494;2023-08-21T04:13:36;27.40;99.90
39957;DHT22;48483;44.640;7.494;2023-08-21T04:16:04;27.40;99.90
39957;DHT22;48483;44.640;7.494;2023-08-21T04:18:31;27.40;99.90
39957;DHT22;48483;44.640;7.494;2023-08-21T04:20:57;27.40;99.90
39957;DHT22;48483;44.640;7.494;2023-08-21T04:23:24;27.40;99.90
39957;DHT22;48483;44.640;7.494;2023-08-21T04:25:51;27.30;99.90
39957;DHT22;48483;44.640;7.494;2023-08-21T04:28:17;27.30;99.90
39957;DHT22;48483;44.640;7.494;2023-08-21T04:30:44;27.40;99.90
39957;DHT22;48483;44.640;7.494;2023-08-21T04:33:12;27.30;99.90
39957;DHT22;48483;44.640;7.494;2023-08-21T04:35:39;27.30;99.90
39957;DHT22;48483;44.640;7.494;2023-08-21T04:38:06;27.30;99.90
39957;DHT22;48483;44.640;7.494;2023-08-21T04:40:35;27.20;99.90
39957;DHT22;48483;44.640;7.494;2023-08-21T04:43:02;27.10;99.90
39957;DHT22;48483;44.640;7.494;2023-08-21T04:45:29;27.00;99.90
39957;DHT22;48483;44.640;7.494;2023-08-21T04:47:57;26.90;99.90
39957;DHT22;48483;44.640;7.494;2023-08-21T04:50:26;26.80;99.90
39957;DHT22;48483;44.640;7.494;2023-08-21T04:52:53;26.70;99.90
39957;DHT22;48483;44.640;7.494;2023-08-21T04:55:20;26.70;99.90
39957;DHT22;48483;44.640;7.494;2023-08-21T04:57:47;26.60;99.90
39957;DHT22;48483;44.640;7.494;2023-08-21T05:00:14;26.50;99.90
39957;DHT22;48483;44.640;7.494;2023-08-21T05:02:45;26.40;99.90
39957;DHT22;48483;44.640;7.494;2023-08-21T05:05:12;26.30;99.90
39957;DHT22;48483;44.640;7.494;2023-08-21T05:07:41;26.30;99.90
39957;DHT22;48483;44.640;7.494;2023-08-21T05:10:08;26.30;99.90
39957;DHT22;48483;44.640;7.494;2023-08-21T05:12:36;26.30;99.90
39957;DHT22;48483;44.640;7.494;2023-08-21T05:15:03;26.30;99.90
39957;DHT22;48483;44.640;7.494;2023-08-21T05:17:30;26.20;99.90
39957;DHT22;48483;44.640;7.494;2023-08-21T05:19:57;26.20;99.90
39957;DHT22;48483;44.640;7.494;2023-08-21T05:22:24;26.20;99.90
39957;DHT22;48483;44.640;7.494;2023-08-21T05:24:52;26.20;99.90
39957;DHT22;48483;44.640;7.494;2023-08-21T05:27:19;26.20;99.90
39957;DHT22;48483;44.640;7.494;2023-08-21T05:29:45;26.20;99.90
39957;DHT22;48483;44.640;7.494;2023-08-21T05:32:12;26.20;99.90
39957;DHT22;48483;44.640;7.494;2023-08-21T05:34:39;26.20;99.90
39957;DHT22;48483;44.640;7.494;2023-08-21T05:37:07;26.30;99.90
39957;DHT22;48483;44.640;7.494;2023-08-21T05:39:33;26.30;99.90
39957;DHT22;48483;44.640;7.494;2023-08-21T05:42:02;26.30;99.90
39957;DHT22;48483;44.640;7.494;2023-08-21T05:44:29;26.30;99.90
39957;DHT22;48483;44.640;7.494;2023-08-21T05:46:57;26.30;99.90
39957;DHT22;48483;44.640;7.494;2023-08-21T05:49:24;26.30;99.90
39957;DHT22;48483;44.640;7.494;2023-08-21T05:51:51;26.30;99.90
39957;DHT22;48483;44.640;7.494;2023-08-21T05:54:17;26.30;99.90
39957;DHT22;48483;44.640;7.494;2023-08-21T05:56:44;26.40;99.90
39957;DHT22;48483;44.640;7.494;2023-08-21T05:59:26;26.40;99.90
39957;DHT22;48483;44.640;7.494;2023-08-21T06:01:54;26.50;99.90
39957;DHT22;48483;44.640;7.494;2023-08-21T06:04:21;26.50;99.90
39957;DHT22;48483;44.640;7.494;2023-08-21T06:06:57;26.40;99.90
39957;DHT22;48483;44.640;7.494;2023-08-21T06:09:24;26.50;99.90
39957;DHT22;48483;44.640;7.494;2023-08-21T06:11:51;26.50;99.90
39957;DHT22;48483;44.640;7.494;2023-08-21T06:14:19;26.60;99.90
39957;DHT22;48483;44.640;7.494;2023-08-21T06:16:46;26.60;99.90
39957;DHT22;48483;44.640;7.494;2023-08-21T06:19:13;26.70;99.90
39957;DHT22;48483;44.640;7.494;2023-08-21T06:21:39;26.70;99.90
39957;DHT22;48483;44.640;7.494;2023-08-21T06:24:06;26.70;99.90
39957;DHT22;48483;44.640;7.494;2023-08-21T06:26:33;26.90;99.90
39957;DHT22;48483;44.640;7.494;2023-08-21T06:29:00;27.00;99.90
39957;DHT22;48483;44.640;7.494;2023-08-21T06:31:28;27.10;99.90
39957;DHT22;48483;44.640;7.494;2023-08-21T06:33:55;27.20;99.90
39957;DHT22;48483;44.640;7.494;2023-08-21T06:36:22;27.30;99.90
39957;DHT22;48483;44.640;7.494;2023-08-21T06:38:48;27.40;99.90
39957;DHT22;48483;44.640;7.494;2023-08-21T06:41:15;27.50;99.90
39957;DHT22;48483;44.640;7.494;2023-08-21T06:43:42;27.70;99.90
39957;DHT22;48483;44.640;7.494;2023-08-21T06:46:09;27.80;99.90
39957;DHT22;48483;44.640;7.494;2023-08-21T06:48:39;27.90;99.90
39957;DHT22;48483;44.640;7.494;2023-08-21T06:51:07;28.00;99.90
39957;DHT22;48483;44.640;7.494;2023-08-21T06:53:34;28.10;99.90
39957;DHT22;48483;44.640;7.494;2023-08-21T06:56:01;28.20;99.90
39957;DHT22;48483;44.640;7.494;2023-08-21T06:58:28;28.40;99.90
39957;DHT22;48483;44.640;7.494;2023-08-21T07:00:54;28.50;99.90
39957;DHT22;48483;44.640;7.494;2023-08-21T07:03:22;28.70;99.90
39957;DHT22;48483;44.640;7.494;2023-08-21T07:05:55;28.80;99.90
39957;DHT22;48483;44.640;7.494;2023-08-21T07:08:23;28.90;99.90
39957;DHT22;48483;44.640;7.494;2023-08-21T07:10:49;29.00;99.90
39957;DHT22;48483;44.640;7.494;2023-08-21T07:13:16;29.10;99.90
39957;DHT22;48483;44.640;7.494;2023-08-21T07:15:43;29.20;99.90
39957;DHT22;48483;44.640;7.494;2023-08-21T07:18:10;29.30;99.90
39957;DHT22;48483;44.640;7.494;2023-08-21T07:20:36;29.40;99.90
39957;DHT22;48483;44.640;7.494;2023-08-21T07:23:04;29.50;99.90
39957;DHT22;48483;44.640;7.494;2023-08-21T07:25:31;29.60;99.90
39957;DHT22;48483;44.640;7.494;2023-08-21T07:27:58;29.70;99.90
39957;DHT22;48483;44.640;7.494;2023-08-21T07:30:25;29.70;99.90
39957;DHT22;48483;44.640;7.494;2023-08-21T07:32:53;29.80;99.90
39957;DHT22;48483;44.640;7.494;2023-08-21T07:35:20;29.90;99.90
39957;DHT22;48483;44.640;7.494;2023-08-21T07:37:47;29.90;99.90
39957;DHT22;48483;44.640;7.494;2023-08-21T07:40:15;30.00;99.90
39957;DHT22;48483;44.640;7.494;2023-08-21T07:42:42;30.10;99.90
39957;DHT22;48483;44.640;7.494;2023-08-21T07:45:09;30.20;99.90
39957;DHT22;48483;44.640;7.494;2023-08-21T07:47:37;30.20;99.90
39957;DHT22;48483;44.640;7.494;2023-08-21T07:50:05;30.30;99.90
39957;DHT22;48483;44.640;7.494;2023-08-21T07:52:32;30.40;99.90
39957;DHT22;48483;44.640;7.494;2023-08-21T07:54:58;30.40;99.90
39957;DHT22;48483;44.640;7.494;2023-08-21T07:57:30;30.40;99.90
39957;DHT22;48483;44.640;7.494;2023-08-21T07:59:57;30.40;99.90
39957;DHT22;48483;44.640;7.494;2023-08-21T08:02:24;30.40;99.90
39957;DHT22;48483;44.640;7.494;2023-08-21T08:04:50;30.40;99.90
39957;DHT22;48483;44.640;7.494;2023-08-21T08:07:17;30.40;98.70
39957;DHT22;48483;44.640;7.494;2023-08-21T08:09:43;30.50;98.70
39957;DHT22;48483;44.640;7.494;2023-08-21T08:12:10;30.60;97.70
39957;DHT22;48483;44.640;7.494;2023-08-21T08:14:38;30.70;98.10
39957;DHT22;48483;44.640;7.494;2023-08-21T08:17:05;30.70;98.00
39957;DHT22;48483;44.640;7.494;2023-08-21T08:19:32;30.70;97.10
39957;DHT22;48483;44.640;7.494;2023-08-21T08:21:58;30.80;97.20
39957;DHT22;48483;44.640;7.494;2023-08-21T08:24:25;30.90;96.90
39957;DHT22;48483;44.640;7.494;2023-08-21T08:26:53;30.90;96.30
39957;DHT22;48483;44.640;7.494;2023-08-21T08:29:19;31.00;95.80
39957;DHT22;48483;44.640;7.494;2023-08-21T08:31:47;31.10;94.60
39957;DHT22;48483;44.640;7.494;2023-08-21T08:34:14;31.20;94.20
39957;DHT22;48483;44.640;7.494;2023-08-21T08:36:41;31.20;94.10
39957;DHT22;48483;44.640;7.494;2023-08-21T08:39:08;31.30;93.70
39957;DHT22;48483;44.640;7.494;2023-08-21T08:41:41;31.30;93.70
39957;DHT22;48483;44.640;7.494;2023-08-21T08:44:10;31.30;94.00
39957;DHT22;48483;44.640;7.494;2023-08-21T08:46:39;31.40;94.30
39957;DHT22;48483;44.640;7.494;2023-08-21T08:49:07;31.40;94.40
39957;DHT22;48483;44.640;7.494;2023-08-21T08:51:35;31.40;94.70
39957;DHT22;48483;44.640;7.494;2023-08-21T08:54:03;31.50;94.80
39957;DHT22;48483;44.640;7.494;2023-08-21T08:56:30;31.60;94.50
39957;DHT22;48483;44.640;7.494;2023-08-21T08:58:57;31.60;94.50
39957;DHT22;48483;44.640;7.494;2023-08-21T09:01:23;31.70;94.80
39957;DHT22;48483;44.640;7.494;2023-08-21T09:03:52;31.80;94.40
39957;DHT22;48483;44.640;7.494;2023-08-21T09:06:20;31.80;94.30
39957;DHT22;48483;44.640;7.494;2023-08-21T09:08:56;31.90;94.20
39957;DHT22;48483;44.640;7.494;2023-08-21T09:11:23;31.90;92.60
39957;DHT22;48483;44.640;7.494;2023-08-21T09:13:51;31.90;92.00
39957;DHT22;48483;44.640;7.494;2023-08-21T09:16:18;31.90;92.00
39957;DHT22;48483;44.640;7.494;2023-08-21T09:18:48;31.90;91.50
39957;DHT22;48483;44.640;7.494;2023-08-21T09:21:20;32.00;91.60
39957;DHT22;48483;44.640;7.494;2023-08-21T09:23:47;32.10;91.30
39957;DHT22;48483;44.640;7.494;2023-08-21T09:26:18;32.10;90.10
39957;DHT22;48483;44.640;7.494;2023-08-21T09:28:46;32.00;90.20
39957;DHT22;48483;44.640;7.494;2023-08-21T09:31:14;32.10;90.60
39957;DHT22;48483;44.640;7.494;2023-08-21T09:33:41;32.10;91.00
39957;DHT22;48483;44.640;7.494;2023-08-21T09:36:09;32.30;91.20
39957;DHT22;48483;44.640;7.494;2023-08-21T09:38:38;32.30;90.90
39957;DHT22;48483;44.640;7.494;2023-08-21T09:41:06;32.20;90.50
39957;DHT22;48483;44.640;7.494;2023-08-21T09:43:41;32.20;90.90
39957;DHT22;48483;44.640;7.494;2023-08-21T09:46:09;32.30;91.30
39957;DHT22;48483;44.640;7.494;2023-08-21T09:48:41;32.30;91.10
39957;DHT22;48483;44.640;7.494;2023-08-21T09:51:08;32.40;91.10
39957;DHT22;48483;44.640;7.494;2023-08-21T09:53:42;32.40;90.90
39957;DHT22;48483;44.640;7.494;2023-08-21T09:56:17;32.50;91.00
39957;DHT22;48483;44.640;7.494;2023-08-21T09:58:50;32.50;90.90
39957;DHT22;48483;44.640;7.494;2023-08-21T10:01:27;32.50;90.70
39957;DHT22;48483;44.640;7.494;2023-08-21T10:03:54;32.60;90.40
39957;DHT22;48483;44.640;7.494;2023-08-21T10:06:22;32.60;89.60
39957;DHT22;48483;44.640;7.494;2023-08-21T10:08:53;32.60;90.10
39957;DHT22;48483;44.640;7.494;2023-08-21T10:11:21;32.60;89.40
39957;DHT22;48483;44.640;7.494;2023-08-21T10:13:49;32.60;88.40
39957;DHT22;48483;44.640;7.494;2023-08-21T10:16:17;32.60;88.70
39957;DHT22;48483;44.640;7.494;2023-08-21T10:18:45;32.60;87.60
39957;DHT22;48483;44.640;7.494;2023-08-21T10:21:13;32.60;86.50
39957;DHT22;48483;44.640;7.494;2023-08-21T10:23:40;32.60;86.80
39957;DHT22;48483;44.640;7.494;2023-08-21T10:26:10;32.60;85.30
39957;DHT22;48483;44.640;7.494;2023-08-21T10:28:58;32.70;85.40
39957;DHT22;48483;44.640;7.494;2023-08-21T10:31:30;32.70;83.40
39957;DHT22;48483;44.640;7.494;2023-08-21T10:33:58;32.70;83.00
39957;DHT22;48483;44.640;7.494;2023-08-21T10:39:21;32.80;82.80
39957;DHT22;48483;44.640;7.494;2023-08-21T10:41:56;32.90;83.20
39957;DHT22;48483;44.640;7.494;2023-08-21T10:44:37;32.90;79.60
39957;DHT22;48483;44.640;7.494;2023-08-21T10:47:14;32.70;79.50
39957;DHT22;48483;44.640;7.494;2023-08-21T10:49:44;32.80;79.40
39957;DHT22;48483;44.640;7.494;2023-08-21T10:52:12;32.80;79.40
39957;DHT22;48483;44.640;7.494;2023-08-21T10:54:49;32.90;77.30
39957;DHT22;48483;44.640;7.494;2023-08-21T10:57:17;32.80;76.60
39957;DHT22;48483;44.640;7.494;2023-08-21T10:59:52;32.80;76.20
39957;DHT22;48483;44.640;7.494;2023-08-21T11:02:19;32.90;76.20
39957;DHT22;48483;44.640;7.494;2023-08-21T11:04:45;32.90;75.10
39957;DHT22;48483;44.640;7.494;2023-08-21T11:07:12;32.90;75.40
39957;DHT22;48483;44.640;7.494;2023-08-21T11:09:39;33.00;71.90
39957;DHT22;48483;44.640;7.494;2023-08-21T11:12:07;32.90;71.60
39957;DHT22;48483;44.640;7.494;2023-08-21T11:14:37;32.90;71.60
39957;DHT22;48483;44.640;7.494;2023-08-21T11:17:04;33.00;71.70
39957;DHT22;48483;44.640;7.494;2023-08-21T11:19:31;33.00;71.50
39957;DHT22;48483;44.640;7.494;2023-08-21T11:21:58;33.00;73.30
39957;DHT22;48483;44.640;7.494;2023-08-21T11:24:30;33.00;75.20
39957;DHT22;48483;44.640;7.494;2023-08-21T11:26:57;33.10;75.10
39957;DHT22;48483;44.640;7.494;2023-08-21T11:29:24;33.20;75.00
39957;DHT22;48483;44.640;7.494;2023-08-21T11:31:53;33.20;72.90
39957;DHT22;48483;44.640;7.494;2023-08-21T11:34:21;33.10;72.50
39957;DHT22;48483;44.640;7.494;2023-08-21T11:36:48;33.00;73.10
39957;DHT22;48483;44.640;7.494;2023-08-21T11:39:14;33.20;73.50
39957;DHT22;48483;44.640;7.494;2023-08-21T11:41:54;33.30;74.30
39957;DHT22;48483;44.640;7.494;2023-08-21T11:44:21;33.30;74.00
39957;DHT22;48483;44.640;7.494;2023-08-21T11:46:47;33.30;74.50
39957;DHT22;48483;44.640;7.494;2023-08-21T11:49:18;33.40;75.30
39957;DHT22;48483;44.640;7.494;2023-08-21T11:51:46;33.30;75.10
39957;DHT22;48483;44.640;7.494;2023-08-21T11:54:12;33.40;74.70
39957;DHT22;48483;44.640;7.494;2023-08-21T11:56:39;33.50;73.80
39957;DHT22;48483;44.640;7.494;2023-08-21T11:59:09;33.40;74.60
39957;DHT22;48483;44.640;7.494;2023-08-21T12:01:35;33.50;75.10
39957;DHT22;48483;44.640;7.494;2023-08-21T12:04:14;33.40;72.70
39957;DHT22;48483;44.640;7.494;2023-08-21T12:06:45;33.40;72.90
39957;DHT22;48483;44.640;7.494;2023-08-21T12:09:11;33.50;74.20
39957;DHT22;48483;44.640;7.494;2023-08-21T12:11:38;33.50;74.70
39957;DHT22;48483;44.640;7.494;2023-08-21T12:14:05;33.40;74.20
39957;DHT22;48483;44.640;7.494;2023-08-21T12:16:31;33.40;73.80
39957;DHT22;48483;44.640;7.494;2023-08-21T12:18:58;33.40;74.70
39957;DHT22;48483;44.640;7.494;2023-08-21T12:21:25;33.40;74.20
39957;DHT22;48483;44.640;7.494;2023-08-21T12:23:53;33.40;73.80
39957;DHT22;48483;44.640;7.494;2023-08-21T12:26:19;33.50;74.40
39957;DHT22;48483;44.640;7.494;2023-08-21T12:28:50;33.50;74.00
39957;DHT22;48483;44.640;7.494;2023-08-21T12:31:16;33.50;72.90
39957;DHT22;48483;44.640;7.494;2023-08-21T12:33:43;33.50;73.10
39957;DHT22;48483;44.640;7.494;2023-08-21T12:36:09;33.50;73.00
39957;DHT22;48483;44.640;7.494;2023-08-21T12:38:36;33.50;74.00
39957;DHT22;48483;44.640;7.494;2023-08-21T12:41:04;33.50;73.60
39957;DHT22;48483;44.640;7.494;2023-08-21T12:43:31;33.50;75.20
39957;DHT22;48483;44.640;7.494;2023-08-21T12:45:59;33.50;74.20
39957;DHT22;48483;44.640;7.494;2023-08-21T12:48:25;33.50;74.80
39957;DHT22;48483;44.640;7.494;2023-08-21T12:50:52;33.60;76.80
39957;DHT22;48483;44.640;7.494;2023-08-21T12:53:18;33.60;76.80
39957;DHT22;48483;44.640;7.494;2023-08-21T12:55:45;33.60;75.10
39957;DHT22;48483;44.640;7.494;2023-08-21T12:58:14;33.60;76.10
39957;DHT22;48483;44.640;7.494;2023-08-21T13:00:40;33.50;76.70
39957;DHT22;48483;44.640;7.494;2023-08-21T13:03:07;33.40;76.50
39957;DHT22;48483;44.640;7.494;2023-08-21T13:05:34;33.30;76.90
39957;DHT22;48483;44.640;7.494;2023-08-21T13:08:01;33.40;77.00
39957;DHT22;48483;44.640;7.494;2023-08-21T13:10:28;33.40;77.50
39957;DHT22;48483;44.640;7.494;2023-08-21T13:12:54;33.50;77.40
39957;DHT22;48483;44.640;7.494;2023-08-21T13:15:22;33.50;77.10
39957;DHT22;48483;44.640;7.494;2023-08-21T13:17:49;33.50;77.60
39957;DHT22;48483;44.640;7.494;2023-08-21T13:20:15;33.50;76.70
39957;DHT22;48483;44.640;7.494;2023-08-21T13:22:46;33.50;76.60
39957;DHT22;48483;44.640;7.494;2023-08-21T13:25:13;33.50;76.90
39957;DHT22;48483;44.640;7.494;2023-08-21T13:27:40;33.50;77.10
39957;DHT22;48483;44.640;7.494;2023-08-21T13:30:08;33.40;76.70
39957;DHT22;48483;44.640;7.494;2023-08-21T13:32:36;33.40;77.10
39957;DHT22;48483;44.640;7.494;2023-08-21T13:35:02;33.50;76.10
39957;DHT22;48483;44.640;7.494;2023-08-21T13:37:33;33.40;74.70
39957;DHT22;48483;44.640;7.494;2023-08-21T13:39:59;33.50;74.70
39957;DHT22;48483;44.640;7.494;2023-08-21T13:42:27;33.50;75.10
39957;DHT22;48483;44.640;7.494;2023-08-21T13:44:58;33.60;74.20
39957;DHT22;48483;44.640;7.494;2023-08-21T13:47:24;33.60;74.80
39957;DHT22;48483;44.640;7.494;2023-08-21T13:49:52;33.50;74.10
39957;DHT22;48483;44.640;7.494;2023-08-21T13:52:19;33.60;72.80
39957;DHT22;48483;44.640;7.494;2023-08-21T13:54:45;33.60;73.40
39957;DHT22;48483;44.640;7.494;2023-08-21T13:57:12;33.60;73.50
39957;DHT22;48483;44.640;7.494;2023-08-21T13:59:39;33.60;74.20
39957;DHT22;48483;44.640;7.494;2023-08-21T14:02:06;33.50;74.20
39957;DHT22;48483;44.640;7.494;2023-08-21T14:04:33;33.50;74.40
39957;DHT22;48483;44.640;7.494;2023-08-21T14:07:01;33.50;73.60
39957;DHT22;48483;44.640;7.494;2023-08-21T14:09:28;33.50;73.10
39957;DHT22;48483;44.640;7.494;2023-08-21T14:11:55;33.50;72.80
39957;DHT22;48483;44.640;7.494;2023-08-21T14:14:22;33.50;73.30
39957;DHT22;48483;44.640;7.494;2023-08-21T14:16:48;33.40;73.70
39957;DHT22;48483;44.640;7.494;2023-08-21T14:19:15;33.40;73.30
39957;DHT22;48483;44.640;7.494;2023-08-21T14:21:42;33.40;73.60
39957;DHT22;48483;44.640;7.494;2023-08-21T14:24:10;33.40;73.80
39957;DHT22;48483;44.640;7.494;2023-08-21T14:26:36;33.40;72.00
39957;DHT22;48483;44.640;7.494;2023-08-21T14:29:03;33.40;71.90
39957;DHT22;48483;44.640;7.494;2023-08-21T14:31:29;33.40;71.30
39957;DHT22;48483;44.640;7.494;2023-08-21T14:33:56;33.40;72.10
39957;DHT22;48483;44.640;7.494;2023-08-21T14:36:24;33.40;70.90
39957;DHT22;48483;44.640;7.494;2023-08-21T14:38:50;33.40;71.70
39957;DHT22;48483;44.640;7.494;2023-08-21T14:41:18;33.40;71.50
39957;DHT22;48483;44.640;7.494;2023-08-21T14:43:45;33.40;71.40
39957;DHT22;48483;44.640;7.494;2023-08-21T14:46:12;33.50;71.40
39957;DHT22;48483;44.640;7.494;2023-08-21T14:48:38;33.50;71.20
39957;DHT22;48483;44.640;7.494;2023-08-21T14:51:05;33.50;71.90
39957;DHT22;48483;44.640;7.494;2023-08-21T14:53:32;33.50;71.90
39957;DHT22;48483;44.640;7.494;2023-08-21T14:55:58;33.50;70.60
39957;DHT22;48483;44.640;7.494;2023-08-21T14:58:26;33.50;70.20
39957;DHT22;48483;44.640;7.494;2023-08-21T15:00:54;33.50;69.90
39957;DHT22;48483;44.640;7.494;2023-08-21T15:03:21;33.40;70.80
39957;DHT22;48483;44.640;7.494;2023-08-21T15:05:48;33.40;71.30
39957;DHT22;48483;44.640;7.494;2023-08-21T15:08:14;33.40;71.90
39957;DHT22;48483;44.640;7.494;2023-08-21T15:10:41;33.40;72.00
39957;DHT22;48483;44.640;7.494;2023-08-21T15:13:07;33.40;71.00
39957;DHT22;48483;44.640;7.494;2023-08-21T15:15:35;33.40;71.50
39957;DHT22;48483;44.640;7.494;2023-08-21T15:18:02;33.40;71.00
39957;DHT22;48483;44.640;7.494;2023-08-21T15:20:29;33.30;71.70
39957;DHT22;48483;44.640;7.494;2023-08-21T15:22:56;33.30;71.60
39957;DHT22;48483;44.640;7.494;2023-08-21T15:25:22;33.30;72.00
39957;DHT22;48483;44.640;7.494;2023-08-21T15:27:49;33.20;72.30
39957;DHT22;48483;44.640;7.494;2023-08-21T15:30:16;33.30;72.40
39957;DHT22;48483;44.640;7.494;2023-08-21T15:32:45;33.30;72.00
39957;DHT22;48483;44.640;7.494;2023-08-21T15:35:13;33.30;71.10
39957;DHT22;48483;44.640;7.494;2023-08-21T15:37:40;33.30;70.90
39957;DHT22;48483;44.640;7.494;2023-08-21T15:40:10;33.30;70.90
39957;DHT22;48483;44.640;7.494;2023-08-21T15:42:36;33.30;71.30
39957;DHT22;48483;44.640;7.494;2023-08-21T15:45:04;33.30;70.50